createdAt,value
2024-04-11T00:08:20.536Z,150485.59
2024-04-11T00:13:22.443Z,150450.78
2024-04-11T00:18:26.315Z,150446.94
2024-04-11T00:23:28.352Z,150449.50
2024-04-11T00:28:30.929Z,150403.16
2024-04-11T00:33:32.918Z,150401.88
2024-04-11T00:38:34.997Z,150378.69
2024-04-11T00:43:36.912Z,150386.44
2024-04-11T00:48:40.860Z,150383.81
2024-04-11T00:53:43.771Z,150354.25
2024-04-11T00:58:45.712Z,150343.94
2024-04-11T01:03:48.132Z,150331.06
2024-04-11T01:08:52.444Z,150345.22
2024-04-11T01:13:54.637Z,150369.66
2024-04-11T01:18:57.648Z,150324.63
2024-04-11T01:24:01.464Z,150270.56
2024-04-11T01:29:03.776Z,150220.41
2024-04-11T01:34:08.640Z,150210.09
2024-04-11T01:39:12.881Z,150202.34
2024-04-11T01:44:15.426Z,150256.41
2024-04-11T01:49:18.160Z,150231.97
2024-04-11T01:54:20.768Z,150268.00
2024-04-11T01:59:22.831Z,150261.59
2024-04-11T02:04:24.909Z,150273.16
2024-04-11T02:09:32.831Z,150221.69
2024-04-11T02:14:34.829Z,150177.94
2024-04-11T02:19:38.577Z,150166.34
2024-04-11T02:24:40.462Z,150121.28
2024-04-11T02:29:42.356Z,150134.13
2024-04-11T02:34:44.498Z,150144.41
2024-04-11T02:39:47.169Z,150136.69
2024-04-11T02:44:52.445Z,150094.28
2024-04-11T02:49:55.330Z,150046.66
2024-04-11T02:54:57.175Z,150094.28
2024-04-11T03:00:00.517Z,150059.50
2024-04-11T03:05:02.890Z,150015.78
2024-04-11T03:10:05.021Z,150027.41
2024-04-11T03:15:10.670Z,150010.66
2024-04-11T03:20:12.830Z,149973.41
2024-04-11T03:25:14.787Z,150077.53
2024-04-11T03:30:16.730Z,150010.66
2024-04-11T03:35:18.550Z,149973.41
2024-04-11T03:40:21.036Z,149991.38
2024-04-11T03:45:28.090Z,150000.38
2024-04-11T03:50:30.999Z,149972.13
2024-04-11T03:55:46.107Z,149952.81
2024-04-11T04:00:49.520Z,149896.25
2024-04-11T04:05:52.438Z,149970.78
2024-04-11T04:10:54.286Z,150004.22
2024-04-11T04:15:59.176Z,149939.97
2024-04-11T04:21:01.638Z,149920.66
2024-04-11T04:26:09.584Z,149909.09
2024-04-11T04:31:18.294Z,149914.22
2024-04-11T04:36:28.676Z,149927.13
2024-04-11T04:41:31.039Z,149934.78
2024-04-11T04:46:34.116Z,149938.69
2024-04-11T04:51:37.827Z,149939.97
2024-04-11T04:56:43.892Z,149956.66
2024-04-11T05:01:47.016Z,149950.25
2024-04-11T05:06:50.897Z,149975.94
2024-04-11T05:11:52.954Z,150027.41
2024-04-11T05:16:54.846Z,150038.97
2024-04-11T05:21:56.709Z,150071.09
2024-04-11T05:27:00.056Z,150125.13
2024-04-11T05:32:03.260Z,150253.84
2024-04-11T05:37:07.190Z,150251.28
2024-04-11T05:42:10.816Z,150334.91
2024-04-11T05:47:12.870Z,150356.81
2024-04-11T05:52:14.813Z,150372.22
2024-04-11T05:57:16.715Z,150413.44
2024-04-11T06:02:19.461Z,150464.97
2024-04-11T06:07:22.485Z,150685.22
2024-04-11T06:12:24.393Z,150811.59
2024-04-11T06:17:29.331Z,150949.56
2024-04-11T06:22:34.162Z,150974.06
2024-04-11T06:27:37.886Z,150962.44
2024-04-11T06:32:39.876Z,150995.97
2024-04-11T06:37:45.560Z,151118.53
2024-04-11T06:42:51.447Z,151135.34
2024-04-11T06:47:57.316Z,151115.97
2024-04-11T06:53:00.477Z,151188.22
2024-04-11T06:58:07.602Z,151210.16
2024-04-11T07:03:18.380Z,151398.72
2024-04-11T07:08:30.702Z,151352.22
2024-04-11T07:13:34.517Z,151345.75
2024-04-11T07:18:46.693Z,151410.34
2024-04-11T07:23:55.092Z,151464.59
2024-04-11T07:29:01.509Z,151464.59
2024-04-11T07:34:07.487Z,151504.66
2024-04-11T07:39:15.177Z,151623.50
2024-04-11T07:44:19.955Z,151690.75
2024-04-11T07:49:25.821Z,151777.38
2024-04-11T07:54:37.464Z,151831.69
2024-04-11T07:59:48.183Z,151911.84
2024-04-11T08:04:50.686Z,152015.38
2024-04-11T08:09:57.477Z,152140.88
2024-04-11T08:14:59.786Z,152313.09
2024-04-11T08:20:01.933Z,152364.91
2024-04-11T08:25:04.055Z,152449.13
2024-04-11T08:30:13.373Z,152511.28
2024-04-11T08:35:18.939Z,152585.16
2024-04-11T08:40:21.759Z,152608.47
2024-04-11T08:45:28.132Z,152670.72
2024-04-11T08:50:31.508Z,152786.13
2024-04-11T08:55:33.898Z,152756.28
2024-04-11T09:00:41.624Z,152815.91
2024-04-11T09:05:47.815Z,152825.00
2024-04-11T09:10:50.421Z,152831.50
2024-04-11T09:16:02.032Z,152832.78
2024-04-11T09:21:07.665Z,152949.56
2024-04-11T09:26:11.907Z,152984.56
2024-04-11T09:31:13.843Z,152949.56
2024-04-11T09:36:18.512Z,153001.47
2024-04-11T09:41:26.300Z,153102.66
2024-04-11T09:46:30.555Z,153166.28
2024-04-11T09:51:36.368Z,153210.41
2024-04-11T09:56:39.363Z,153177.97
2024-04-11T10:01:42.310Z,153127.31
2024-04-11T10:06:45.590Z,153189.69
2024-04-11T10:11:49.057Z,153246.81
2024-04-11T10:17:02.782Z,153389.59
2024-04-11T10:22:06.950Z,153380.50
2024-04-11T10:27:15.335Z,153350.66
2024-04-11T10:32:28.854Z,153380.50
2024-04-11T10:37:35.020Z,153366.22
2024-04-11T10:42:39.598Z,153433.81
2024-04-11T10:47:43.815Z,153524.72
2024-04-11T10:52:48.722Z,153531.25
2024-04-11T10:58:09.994Z,153549.41
2024-04-11T11:03:15.852Z,153479.25
2024-04-11T11:08:18.102Z,153470.16
2024-04-11T11:13:20.231Z,153377.91
2024-04-11T11:18:25.966Z,153532.53
2024-04-11T11:23:35.352Z,153467.56
2024-04-11T11:28:37.383Z,153545.53
2024-04-11T11:33:43.158Z,153562.44
2024-04-11T11:38:49.963Z,153477.97
2024-04-11T11:43:55.709Z,153579.31
2024-04-11T11:48:58.375Z,153603.97
2024-04-11T11:54:13.907Z,153680.72
2024-04-11T11:59:21.029Z,153674.19
2024-04-11T12:04:23.684Z,153615.69
2024-04-11T12:09:33.092Z,153591.00
2024-04-11T12:14:36.393Z,153645.63
2024-04-11T12:19:38.477Z,153715.81
2024-04-11T12:24:41.110Z,153626.06
2024-04-11T12:29:43.767Z,153730.09
2024-04-11T12:34:47.366Z,153672.91
2024-04-11T12:39:56.403Z,153615.69
2024-04-11T12:45:02.198Z,153714.50
2024-04-11T12:50:06.518Z,153594.88
2024-04-11T12:55:09.681Z,153574.13
2024-04-11T13:00:30.789Z,153570.19
2024-04-11T13:05:42.338Z,153546.81
2024-04-11T13:10:47.094Z,153487.06
2024-04-11T13:15:50.616Z,153481.84
2024-04-11T13:20:53.653Z,153463.69
2024-04-11T13:25:59.348Z,153496.19
2024-04-11T13:31:01.478Z,153436.38
2024-04-11T13:36:13.697Z,153448.06
2024-04-11T13:41:34.301Z,153455.88
2024-04-11T13:46:37.059Z,153445.50
2024-04-11T13:51:46.162Z,153424.69
2024-04-11T13:57:01.093Z,153413.00
2024-04-11T14:02:10.918Z,153429.91
2024-04-11T14:07:12.881Z,153402.63
2024-04-11T14:12:18.190Z,153423.41
2024-04-11T14:17:28.480Z,153351.94
2024-04-11T14:22:31.412Z,153326.00
2024-04-11T14:27:33.382Z,153370.16
2024-04-11T14:32:53.700Z,153354.53
2024-04-11T14:38:09.021Z,153418.22
2024-04-11T14:43:22.398Z,153383.13
2024-04-11T14:48:35.267Z,153323.34
2024-04-11T14:53:40.201Z,153324.66
2024-04-11T14:58:49.177Z,153424.69
2024-04-11T15:03:58.572Z,153349.38
2024-04-11T15:09:22.006Z,153385.72
2024-04-11T15:14:25.766Z,153366.22
2024-04-11T15:19:28.519Z,153353.25
2024-04-11T15:24:30.349Z,153336.38
2024-04-11T15:29:49.115Z,153264.94
2024-04-11T15:35:08.401Z,153248.09
2024-04-11T15:40:23.689Z,153233.78
2024-04-11T15:45:31.187Z,153246.81
2024-04-11T15:50:37.817Z,153211.69
2024-04-11T15:55:53.660Z,153218.22
2024-04-11T16:00:55.626Z,153237.69
2024-04-11T16:06:03.522Z,153177.97
2024-04-11T16:11:05.619Z,153176.66
2024-04-11T16:16:11.383Z,153170.19
2024-04-11T16:21:16.647Z,153124.72
2024-04-11T16:26:20.668Z,153170.19
2024-04-11T16:31:29.090Z,153123.44
2024-04-11T16:36:32.206Z,153107.84
2024-04-11T16:41:40.398Z,153092.28
2024-04-11T16:46:42.908Z,153072.81
2024-04-11T16:51:44.930Z,153105.25
2024-04-11T16:56:50.215Z,153037.78
2024-04-11T17:01:52.563Z,152989.78
2024-04-11T17:06:58.571Z,152957.34
2024-04-11T17:12:05.132Z,152937.88
2024-04-11T17:17:30.362Z,152932.72
2024-04-11T17:22:51.227Z,152843.19
2024-04-11T17:28:00.804Z,152804.25
2024-04-11T17:33:11.907Z,152765.38
2024-04-11T17:38:25.694Z,152731.66
2024-04-11T17:43:29.225Z,152713.50
2024-04-11T17:48:42.855Z,152678.50
2024-04-11T17:53:48.766Z,152647.38
2024-04-11T17:58:54.136Z,152614.94
2024-04-11T18:03:59.878Z,152624.06
2024-04-11T18:09:11.298Z,152618.91
2024-04-11T18:14:14.644Z,152570.91
2024-04-11T18:19:16.452Z,152506.13
2024-04-11T18:24:20.313Z,152446.50
2024-04-11T18:29:24.797Z,152447.84
2024-04-11T18:34:27.036Z,152471.16
2024-04-11T18:39:34.125Z,152475.03
2024-04-11T18:44:51.769Z,152401.16
2024-04-11T18:49:54.222Z,152353.25
2024-04-11T18:54:56.885Z,152331.25
2024-04-11T19:00:05.618Z,152383.06
2024-04-11T19:05:12.387Z,152293.66
2024-04-11T19:10:15.970Z,152266.44
2024-04-11T19:15:19.811Z,152252.22
2024-04-11T19:20:23.778Z,152230.19
2024-04-11T19:25:29.464Z,152244.47
2024-04-11T19:30:38.610Z,152230.19
2024-04-11T19:35:50.764Z,152260.00
2024-04-11T19:40:57.971Z,152260.00
2024-04-11T19:46:09.607Z,152226.34
2024-04-11T19:51:18.791Z,152209.47
2024-04-11T19:56:25.559Z,152169.38
2024-04-11T20:01:39.536Z,152151.25
2024-04-11T20:06:48.514Z,152179.75
2024-04-11T20:11:51.062Z,152186.19
2024-04-11T20:16:59.204Z,152153.81
2024-04-11T20:22:06.842Z,152130.53
2024-04-11T20:27:10.747Z,152103.38
2024-04-11T20:32:13.905Z,152095.59
2024-04-11T20:37:19.043Z,152120.16
2024-04-11T20:42:39.536Z,152045.16
2024-04-11T20:47:56.288Z,151993.34
2024-04-11T20:53:16.935Z,151979.13
2024-04-11T20:58:37.630Z,151963.63
2024-04-11T21:03:58.194Z,151926.06
2024-04-11T21:09:19.134Z,151870.44
2024-04-11T21:14:39.864Z,151891.16
2024-04-11T21:20:00.441Z,151798.06
2024-04-11T21:25:20.833Z,151807.13
2024-04-11T21:30:41.518Z,151778.66
2024-04-11T21:35:51.532Z,151765.72
2024-04-11T21:41:12.489Z,151708.88
2024-04-11T21:46:17.340Z,151671.34
2024-04-11T21:51:20.851Z,151641.59
2024-04-11T21:56:22.663Z,151615.78
2024-04-11T22:01:44.925Z,151622.22
2024-04-11T22:06:57.289Z,151659.72
2024-04-11T22:12:02.457Z,151615.78
2024-04-11T22:17:07.340Z,151584.75
2024-04-11T22:22:14.627Z,151609.28
2024-04-11T22:27:18.581Z,151569.22
2024-04-11T22:32:22.891Z,151549.88
2024-04-11T22:37:25.437Z,151570.50
2024-04-11T22:42:34.831Z,151560.22
2024-04-11T22:47:41.662Z,151522.72
2024-04-11T22:52:44.201Z,151469.72
2024-04-11T22:57:54.018Z,151458.09
2024-04-11T23:03:11.234Z,151517.56
2024-04-11T23:08:13.909Z,151530.47
2024-04-11T23:13:17.727Z,151486.56
2024-04-11T23:18:21.740Z,151423.25
2024-04-11T23:23:27.590Z,151381.94
2024-04-11T23:28:30.091Z,151316.09
2024-04-11T23:33:34.687Z,151334.13
2024-04-11T23:38:41.978Z,151348.38
2024-04-11T23:43:48.122Z,151256.66
2024-04-11T23:48:50.612Z,151264.44
2024-04-11T23:53:54.565Z,151334.13
2024-04-11T23:58:56.566Z,151246.34
